Terminal Aerodrome Forecast
Issued by NWS Corpus Christi, TX

Home | Current Version | Previous Version | Text Only | Print | Product List | Glossary On
Versions: 1 2 3 4 5 6 7 8 9 10 11 12 13 14 15 16 17 18 19 20
000
FTUS44 KCRP 161139
TAFVCT
TAF
KVCT 161139Z 1612/1712 15005KT P6SM VCSH SCT020 BKN025
      TEMPO 1612/1616 -SHRA BKN012 OVC020
     FM161600 16012KT P6SM VCSH BKN025
      TEMPO 1618/1621 6SM -TSRA BKN020CB
     FM170200 14006KT P6SM SCT020
     FM170500 14003KT 5SM BR VCSH BKN010
      TEMPO 1709/1712 2SM BR=

USA.gov is the U.S. government's official web portal to all federal, state and local government web resources and services.